sensor_id;sensor_type;location;lat;lon;timestamp;temperature;humidity
42833;DHT22;64089;51.478;5.692;2023-04-01T00:00:19;10.00;99.90
42833;DHT22;64089;51.478;5.692;2023-04-01T00:02:45;10.10;99.90
42833;DHT22;64089;51.478;5.692;2023-04-01T00:05:11;10.10;99.90
42833;DHT22;64089;51.478;5.692;2023-04-01T00:07:38;10.00;99.90
42833;DHT22;64089;51.478;5.692;2023-04-01T00:10:06;10.10;99.90
42833;DHT22;64089;51.478;5.692;2023-04-01T00:12:32;10.00;99.90
42833;DHT22;64089;51.478;5.692;2023-04-01T00:14:58;10.00;99.90
42833;DHT22;64089;51.478;5.692;2023-04-01T00:17:23;10.00;99.90
42833;DHT22;64089;51.478;5.692;2023-04-01T00:19:49;10.00;99.90
42833;DHT22;64089;51.478;5.692;2023-04-01T00:22:15;10.00;99.90
42833;DHT22;64089;51.478;5.692;2023-04-01T00:24:40;10.00;99.90
42833;DHT22;64089;51.478;5.692;2023-04-01T00:27:06;10.00;99.90
42833;DHT22;64089;51.478;5.692;2023-04-01T00:29:33;10.00;99.90
42833;DHT22;64089;51.478;5.692;2023-04-01T00:31:59;10.00;99.90
42833;DHT22;64089;51.478;5.692;2023-04-01T00:34:25;10.00;99.90
42833;DHT22;64089;51.478;5.692;2023-04-01T00:36:51;10.00;99.90
42833;DHT22;64089;51.478;5.692;2023-04-01T00:39:17;10.00;99.90
42833;DHT22;64089;51.478;5.692;2023-04-01T00:41:43;10.00;99.90
42833;DHT22;64089;51.478;5.692;2023-04-01T00:44:36;10.00;99.90
42833;DHT22;64089;51.478;5.692;2023-04-01T00:47:02;10.00;99.90
42833;DHT22;64089;51.478;5.692;2023-04-01T00:49:34;10.00;99.90
42833;DHT22;64089;51.478;5.692;2023-04-01T00:52:03;10.00;99.90
42833;DHT22;64089;51.478;5.692;2023-04-01T00:54:31;10.00;99.90
42833;DHT22;64089;51.478;5.692;2023-04-01T00:57:06;10.00;99.90
42833;DHT22;64089;51.478;5.692;2023-04-01T00:59:35;10.00;99.90
42833;DHT22;64089;51.478;5.692;2023-04-01T01:02:04;10.00;99.90
42833;DHT22;64089;51.478;5.692;2023-04-01T01:04:32;10.00;99.90
42833;DHT22;64089;51.478;5.692;2023-04-01T01:12:49;10.00;99.90
42833;DHT22;64089;51.478;5.692;2023-04-01T01:15:31;10.00;99.90
42833;DHT22;64089;51.478;5.692;2023-04-01T01:19:04;10.00;99.90
42833;DHT22;64089;51.478;5.692;2023-04-01T01:29:05;9.80;99.90
42833;DHT22;64089;51.478;5.692;2023-04-01T01:37:24;9.90;99.90
42833;DHT22;64089;51.478;5.692;2023-04-01T01:39:58;9.80;99.90
42833;DHT22;64089;51.478;5.692;2023-04-01T01:42:26;9.90;99.90
42833;DHT22;64089;51.478;5.692;2023-04-01T01:44:55;9.80;99.90
42833;DHT22;64089;51.478;5.692;2023-04-01T01:47:23;9.80;99.90
42833;DHT22;64089;51.478;5.692;2023-04-01T01:49:51;9.80;99.90
42833;DHT22;64089;51.478;5.692;2023-04-01T01:52:17;9.80;99.90
42833;DHT22;64089;51.478;5.692;2023-04-01T01:54:51;9.80;99.90
42833;DHT22;64089;51.478;5.692;2023-04-01T01:57:21;9.80;99.90
42833;DHT22;64089;51.478;5.692;2023-04-01T01:59:49;9.90;99.90
42833;DHT22;64089;51.478;5.692;2023-04-01T02:02:16;9.80;99.90
42833;DHT22;64089;51.478;5.692;2023-04-01T02:04:43;9.90;99.90
42833;DHT22;64089;51.478;5.692;2023-04-01T02:07:23;9.80;99.90
42833;DHT22;64089;51.478;5.692;2023-04-01T02:09:51;9.80;99.90
42833;DHT22;64089;51.478;5.692;2023-04-01T02:12:21;9.80;99.90
42833;DHT22;64089;51.478;5.692;2023-04-01T02:14:58;9.80;99.90
42833;DHT22;64089;51.478;5.692;2023-04-01T02:17:27;9.80;99.90
42833;DHT22;64089;51.478;5.692;2023-04-01T02:20:03;9.80;99.90
42833;DHT22;64089;51.478;5.692;2023-04-01T02:22:36;9.90;99.90
42833;DHT22;64089;51.478;5.692;2023-04-01T02:25:18;9.80;99.90
42833;DHT22;64089;51.478;5.692;2023-04-01T02:27:45;9.80;99.90
42833;DHT22;64089;51.478;5.692;2023-04-01T02:30:12;9.80;99.90
42833;DHT22;64089;51.478;5.692;2023-04-01T02:32:40;9.80;99.90
42833;DHT22;64089;51.478;5.692;2023-04-01T02:35:08;9.80;99.90
42833;DHT22;64089;51.478;5.692;2023-04-01T02:37:36;9.80;99.90
42833;DHT22;64089;51.478;5.692;2023-04-01T02:40:03;9.80;99.90
42833;DHT22;64089;51.478;5.692;2023-04-01T02:42:32;9.80;99.90
42833;DHT22;64089;51.478;5.692;2023-04-01T02:44:57;9.80;99.90
42833;DHT22;64089;51.478;5.692;2023-04-01T02:47:23;9.80;99.90
42833;DHT22;64089;51.478;5.692;2023-04-01T02:49:48;9.80;99.90
42833;DHT22;64089;51.478;5.692;2023-04-01T02:52:14;9.80;99.90
42833;DHT22;64089;51.478;5.692;2023-04-01T02:54:40;9.80;99.90
42833;DHT22;64089;51.478;5.692;2023-04-01T02:57:06;9.80;99.90
42833;DHT22;64089;51.478;5.692;2023-04-01T02:59:32;9.70;99.90
42833;DHT22;64089;51.478;5.692;2023-04-01T03:01:57;9.80;99.90
42833;DHT22;64089;51.478;5.692;2023-04-01T03:04:23;9.80;99.90
42833;DHT22;64089;51.478;5.692;2023-04-01T03:06:49;9.70;99.90
42833;DHT22;64089;51.478;5.692;2023-04-01T03:09:15;9.70;99.90
42833;DHT22;64089;51.478;5.692;2023-04-01T03:11:41;9.70;99.90
42833;DHT22;64089;51.478;5.692;2023-04-01T03:14:07;9.70;99.90
42833;DHT22;64089;51.478;5.692;2023-04-01T03:16:32;9.70;99.90
42833;DHT22;64089;51.478;5.692;2023-04-01T03:18:58;9.60;99.90
42833;DHT22;64089;51.478;5.692;2023-04-01T03:21:25;9.70;99.90
42833;DHT22;64089;51.478;5.692;2023-04-01T03:23:51;9.60;99.90
42833;DHT22;64089;51.478;5.692;2023-04-01T03:26:17;9.60;99.90
42833;DHT22;64089;51.478;5.692;2023-04-01T03:28:43;9.70;99.90
42833;DHT22;64089;51.478;5.692;2023-04-01T03:31:10;9.70;99.90
42833;DHT22;64089;51.478;5.692;2023-04-01T03:33:36;9.70;99.90
42833;DHT22;64089;51.478;5.692;2023-04-01T03:36:02;9.70;99.90
42833;DHT22;64089;51.478;5.692;2023-04-01T03:38:28;9.70;99.90
42833;DHT22;64089;51.478;5.692;2023-04-01T03:40:54;9.70;99.90
42833;DHT22;64089;51.478;5.692;2023-04-01T03:43:22;9.70;99.90
42833;DHT22;64089;51.478;5.692;2023-04-01T03:45:50;9.60;99.90
42833;DHT22;64089;51.478;5.692;2023-04-01T03:48:16;9.70;99.90
42833;DHT22;64089;51.478;5.692;2023-04-01T03:50:42;9.60;99.90
42833;DHT22;64089;51.478;5.692;2023-04-01T03:53:08;9.70;99.90
42833;DHT22;64089;51.478;5.692;2023-04-01T03:55:36;9.70;99.90
42833;DHT22;64089;51.478;5.692;2023-04-01T03:58:02;9.60;99.90
42833;DHT22;64089;51.478;5.692;2023-04-01T04:00:31;9.60;99.90
42833;DHT22;64089;51.478;5.692;2023-04-01T04:02:56;9.60;99.90
42833;DHT22;64089;51.478;5.692;2023-04-01T04:05:23;9.60;99.90
42833;DHT22;64089;51.478;5.692;2023-04-01T04:07:50;9.60;99.90
42833;DHT22;64089;51.478;5.692;2023-04-01T04:10:15;9.60;99.90
42833;DHT22;64089;51.478;5.692;2023-04-01T04:12:41;9.60;99.90
42833;DHT22;64089;51.478;5.692;2023-04-01T04:15:08;9.60;99.90
42833;DHT22;64089;51.478;5.692;2023-04-01T04:17:33;9.60;99.90
42833;DHT22;64089;51.478;5.692;2023-04-01T04:19:59;9.60;99.90
42833;DHT22;64089;51.478;5.692;2023-04-01T04:22:25;9.60;99.90
42833;DHT22;64089;51.478;5.692;2023-04-01T04:24:51;9.60;99.90
42833;DHT22;64089;51.478;5.692;2023-04-01T04:27:16;9.60;99.90
42833;DHT22;64089;51.478;5.692;2023-04-01T04:29:42;9.60;99.90
42833;DHT22;64089;51.478;5.692;2023-04-01T04:32:08;9.60;99.90
42833;DHT22;64089;51.478;5.692;2023-04-01T04:34:34;9.60;99.90
42833;DHT22;64089;51.478;5.692;2023-04-01T04:36:59;9.50;99.90
42833;DHT22;64089;51.478;5.692;2023-04-01T04:39:25;9.60;99.90
42833;DHT22;64089;51.478;5.692;2023-04-01T04:41:51;9.50;99.90
42833;DHT22;64089;51.478;5.692;2023-04-01T04:44:16;9.50;99.90
42833;DHT22;64089;51.478;5.692;2023-04-01T04:46:42;9.50;99.90
42833;DHT22;64089;51.478;5.692;2023-04-01T04:49:07;9.50;99.90
42833;DHT22;64089;51.478;5.692;2023-04-01T04:51:33;9.50;99.90
42833;DHT22;64089;51.478;5.692;2023-04-01T04:54:01;9.50;99.90
42833;DHT22;64089;51.478;5.692;2023-04-01T04:56:27;9.50;99.90
42833;DHT22;64089;51.478;5.692;2023-04-01T04:58:53;9.50;99.90
42833;DHT22;64089;51.478;5.692;2023-04-01T05:01:19;9.40;99.90
42833;DHT22;64089;51.478;5.692;2023-04-01T05:03:45;9.40;99.90
42833;DHT22;64089;51.478;5.692;2023-04-01T05:06:13;9.40;99.90
42833;DHT22;64089;51.478;5.692;2023-04-01T05:08:40;9.40;99.90
42833;DHT22;64089;51.478;5.692;2023-04-01T05:11:09;9.40;99.90
42833;DHT22;64089;51.478;5.692;2023-04-01T05:13:36;9.40;99.90
42833;DHT22;64089;51.478;5.692;2023-04-01T05:16:02;9.40;99.90
42833;DHT22;64089;51.478;5.692;2023-04-01T05:18:27;9.30;99.90
42833;DHT22;64089;51.478;5.692;2023-04-01T05:20:54;9.40;99.90
42833;DHT22;64089;51.478;5.692;2023-04-01T05:23:21;9.30;99.90
42833;DHT22;64089;51.478;5.692;2023-04-01T05:25:50;9.30;99.90
42833;DHT22;64089;51.478;5.692;2023-04-01T05:28:18;9.40;99.90
42833;DHT22;64089;51.478;5.692;2023-04-01T05:30:44;9.30;99.90
42833;DHT22;64089;51.478;5.692;2023-04-01T05:33:12;9.30;99.90
42833;DHT22;64089;51.478;5.692;2023-04-01T05:35:38;9.30;99.90
42833;DHT22;64089;51.478;5.692;2023-04-01T05:38:04;9.30;99.90
42833;DHT22;64089;51.478;5.692;2023-04-01T05:40:31;9.30;99.90
42833;DHT22;64089;51.478;5.692;2023-04-01T05:42:56;9.30;99.90
42833;DHT22;64089;51.478;5.692;2023-04-01T05:45:22;9.30;99.90
42833;DHT22;64089;51.478;5.692;2023-04-01T05:47:48;9.30;99.90
42833;DHT22;64089;51.478;5.692;2023-04-01T05:50:13;9.30;99.90
42833;DHT22;64089;51.478;5.692;2023-04-01T05:52:40;9.30;99.90
42833;DHT22;64089;51.478;5.692;2023-04-01T05:55:06;9.30;99.90
42833;DHT22;64089;51.478;5.692;2023-04-01T05:57:32;9.30;99.90
42833;DHT22;64089;51.478;5.692;2023-04-01T05:59:57;9.30;99.90
42833;DHT22;64089;51.478;5.692;2023-04-01T06:02:23;9.30;99.90
42833;DHT22;64089;51.478;5.692;2023-04-01T06:04:49;9.30;99.90
42833;DHT22;64089;51.478;5.692;2023-04-01T06:07:19;9.30;99.90
42833;DHT22;64089;51.478;5.692;2023-04-01T06:09:45;9.30;99.90
42833;DHT22;64089;51.478;5.692;2023-04-01T06:22:47;9.30;99.90
42833;DHT22;64089;51.478;5.692;2023-04-01T06:30:56;9.40;99.90
42833;DHT22;64089;51.478;5.692;2023-04-01T06:33:50;9.30;99.90
42833;DHT22;64089;51.478;5.692;2023-04-01T06:47:40;9.40;99.90
42833;DHT22;64089;51.478;5.692;2023-04-01T06:52:42;9.50;99.90
42833;DHT22;64089;51.478;5.692;2023-04-01T06:58:11;9.50;99.90
42833;DHT22;64089;51.478;5.692;2023-04-01T07:00:43;9.40;99.90
42833;DHT22;64089;51.478;5.692;2023-04-01T07:05:57;9.40;99.90
42833;DHT22;64089;51.478;5.692;2023-04-01T07:08:26;9.50;99.90
42833;DHT22;64089;51.478;5.692;2023-04-01T07:11:03;9.50;99.90
42833;DHT22;64089;51.478;5.692;2023-04-01T07:13:55;9.50;99.90
42833;DHT22;64089;51.478;5.692;2023-04-01T07:19:14;9.60;99.90
42833;DHT22;64089;51.478;5.692;2023-04-01T07:21:46;9.60;99.90
42833;DHT22;64089;51.478;5.692;2023-04-01T07:24:39;9.60;99.90
42833;DHT22;64089;51.478;5.692;2023-04-01T07:27:09;9.70;99.90
42833;DHT22;64089;51.478;5.692;2023-04-01T07:29:35;9.70;99.90
42833;DHT22;64089;51.478;5.692;2023-04-01T07:35:09;9.70;99.90
42833;DHT22;64089;51.478;5.692;2023-04-01T07:41:17;9.80;99.90
42833;DHT22;64089;51.478;5.692;2023-04-01T07:47:02;9.90;99.90
42833;DHT22;64089;51.478;5.692;2023-04-01T07:49:44;9.90;99.90
42833;DHT22;64089;51.478;5.692;2023-04-01T07:55:32;9.80;99.90
42833;DHT22;64089;51.478;5.692;2023-04-01T08:11:11;9.90;99.90
42833;DHT22;64089;51.478;5.692;2023-04-01T08:22:11;10.30;99.90
42833;DHT22;64089;51.478;5.692;2023-04-01T08:24:45;10.40;99.90
42833;DHT22;64089;51.478;5.692;2023-04-01T08:27:23;10.40;99.90
42833;DHT22;64089;51.478;5.692;2023-04-01T08:29:58;10.40;99.90
42833;DHT22;64089;51.478;5.692;2023-04-01T08:32:29;10.50;99.90
42833;DHT22;64089;51.478;5.692;2023-04-01T08:37:44;10.50;99.90
42833;DHT22;64089;51.478;5.692;2023-04-01T08:40:35;10.50;99.90
42833;DHT22;64089;51.478;5.692;2023-04-01T08:48:57;10.40;99.90
42833;DHT22;64089;51.478;5.692;2023-04-01T08:51:28;10.50;99.90
42833;DHT22;64089;51.478;5.692;2023-04-01T09:05:49;10.50;99.90
42833;DHT22;64089;51.478;5.692;2023-04-01T09:14:12;10.50;99.90
42833;DHT22;64089;51.478;5.692;2023-04-01T09:20:22;10.60;99.90
42833;DHT22;64089;51.478;5.692;2023-04-01T09:26:17;10.90;99.90
42833;DHT22;64089;51.478;5.692;2023-04-01T09:29:05;11.00;99.90
42833;DHT22;64089;51.478;5.692;2023-04-01T09:32:03;11.00;99.90
42833;DHT22;64089;51.478;5.692;2023-04-01T09:35:21;11.20;99.90
42833;DHT22;64089;51.478;5.692;2023-04-01T09:43:39;11.60;99.90
42833;DHT22;64089;51.478;5.692;2023-04-01T09:46:30;11.50;99.90
42833;DHT22;64089;51.478;5.692;2023-04-01T09:49:33;11.50;99.90
42833;DHT22;64089;51.478;5.692;2023-04-01T09:54:58;11.30;99.90
42833;DHT22;64089;51.478;5.692;2023-04-01T10:03:47;11.10;99.90
42833;DHT22;64089;51.478;5.692;2023-04-01T10:14:37;11.00;99.90
42833;DHT22;64089;51.478;5.692;2023-04-01T10:44:30;10.80;99.90
42833;DHT22;64089;51.478;5.692;2023-04-01T10:47:16;10.80;99.90
42833;DHT22;64089;51.478;5.692;2023-04-01T11:21:46;10.70;99.90
42833;DHT22;64089;51.478;5.692;2023-04-01T11:35:45;10.70;99.90
42833;DHT22;64089;51.478;5.692;2023-04-01T11:38:31;10.60;99.90
42833;DHT22;64089;51.478;5.692;2023-04-01T11:46:51;10.60;99.90
42833;DHT22;64089;51.478;5.692;2023-04-01T11:55:06;10.70;99.90
42833;DHT22;64089;51.478;5.692;2023-04-01T11:57:50;10.60;99.90
42833;DHT22;64089;51.478;5.692;2023-04-01T12:00:35;10.70;99.90
42833;DHT22;64089;51.478;5.692;2023-04-01T12:08:39;10.70;99.90
42833;DHT22;64089;51.478;5.692;2023-04-01T12:11:34;10.70;99.90
42833;DHT22;64089;51.478;5.692;2023-04-01T12:14:14;10.80;99.90
42833;DHT22;64089;51.478;5.692;2023-04-01T12:16:56;10.90;99.90
42833;DHT22;64089;51.478;5.692;2023-04-01T12:19:39;11.00;99.90
42833;DHT22;64089;51.478;5.692;2023-04-01T12:28:06;11.00;99.90
42833;DHT22;64089;51.478;5.692;2023-04-01T12:34:42;11.20;99.90
42833;DHT22;64089;51.478;5.692;2023-04-01T13:14:56;10.70;99.90
42833;DHT22;64089;51.478;5.692;2023-04-01T13:17:34;10.70;99.90
42833;DHT22;64089;51.478;5.692;2023-04-01T13:28:27;10.70;99.90
42833;DHT22;64089;51.478;5.692;2023-04-01T13:33:45;10.60;99.90
42833;DHT22;64089;51.478;5.692;2023-04-01T13:36:28;10.60;99.90
42833;DHT22;64089;51.478;5.692;2023-04-01T13:44:49;10.60;99.90
42833;DHT22;64089;51.478;5.692;2023-04-01T13:58:38;10.60;99.90
42833;DHT22;64089;51.478;5.692;2023-04-01T14:01:12;10.60;99.90
42833;DHT22;64089;51.478;5.692;2023-04-01T14:14:33;10.50;99.90
42833;DHT22;64089;51.478;5.692;2023-04-01T14:30:59;10.40;99.90
42833;DHT22;64089;51.478;5.692;2023-04-01T14:42:28;10.70;99.90
42833;DHT22;64089;51.478;5.692;2023-04-01T14:50:42;10.50;99.90
42833;DHT22;64089;51.478;5.692;2023-04-01T14:56:01;10.50;99.90
42833;DHT22;64089;51.478;5.692;2023-04-01T14:58:46;10.50;99.90
42833;DHT22;64089;51.478;5.692;2023-04-01T15:09:09;10.40;99.90
42833;DHT22;64089;51.478;5.692;2023-04-01T15:17:35;10.40;99.90
42833;DHT22;64089;51.478;5.692;2023-04-01T15:22:59;10.40;99.90
42833;DHT22;64089;51.478;5.692;2023-04-01T15:28:24;10.40;99.90
42833;DHT22;64089;51.478;5.692;2023-04-01T15:34:08;10.40;99.90
42833;DHT22;64089;51.478;5.692;2023-04-01T15:39:42;10.40;99.90
42833;DHT22;64089;51.478;5.692;2023-04-01T15:52:19;10.40;99.90
42833;DHT22;64089;51.478;5.692;2023-04-01T16:00:34;10.30;99.90
42833;DHT22;64089;51.478;5.692;2023-04-01T16:03:15;10.30;99.90
42833;DHT22;64089;51.478;5.692;2023-04-01T16:05:55;10.30;99.90
42833;DHT22;64089;51.478;5.692;2023-04-01T16:11:13;10.40;99.90
42833;DHT22;64089;51.478;5.692;2023-04-01T16:19:41;10.30;99.90
42833;DHT22;64089;51.478;5.692;2023-04-01T16:22:19;10.30;99.90
42833;DHT22;64089;51.478;5.692;2023-04-01T16:24:54;10.30;99.90
42833;DHT22;64089;51.478;5.692;2023-04-01T16:27:35;10.30;99.90
42833;DHT22;64089;51.478;5.692;2023-04-01T16:33:14;10.30;99.90
42833;DHT22;64089;51.478;5.692;2023-04-01T16:35:46;10.30;99.90
42833;DHT22;64089;51.478;5.692;2023-04-01T16:41:11;10.20;99.90
42833;DHT22;64089;51.478;5.692;2023-04-01T16:43:51;10.30;99.90
42833;DHT22;64089;51.478;5.692;2023-04-01T16:46:39;10.30;99.90
42833;DHT22;64089;51.478;5.692;2023-04-01T16:51:46;10.20;99.90
42833;DHT22;64089;51.478;5.692;2023-04-01T16:54:26;10.20;99.90
42833;DHT22;64089;51.478;5.692;2023-04-01T17:02:04;10.20;99.90
42833;DHT22;64089;51.478;5.692;2023-04-01T17:04:45;10.20;99.90
42833;DHT22;64089;51.478;5.692;2023-04-01T17:07:25;10.20;99.90
42833;DHT22;64089;51.478;5.692;2023-04-01T17:15:20;10.10;99.90
42833;DHT22;64089;51.478;5.692;2023-04-01T17:17:59;10.10;99.90
42833;DHT22;64089;51.478;5.692;2023-04-01T17:23:57;10.10;99.90
42833;DHT22;64089;51.478;5.692;2023-04-01T17:26:42;10.10;99.90
42833;DHT22;64089;51.478;5.692;2023-04-01T17:40:27;10.10;99.90
42833;DHT22;64089;51.478;5.692;2023-04-01T17:45:56;10.20;99.90
42833;DHT22;64089;51.478;5.692;2023-04-01T17:57:21;10.20;99.90
42833;DHT22;64089;51.478;5.692;2023-04-01T18:10:49;10.20;99.90
42833;DHT22;64089;51.478;5.692;2023-04-01T18:13:24;10.20;99.90
42833;DHT22;64089;51.478;5.692;2023-04-01T18:16:18;10.20;99.90
42833;DHT22;64089;51.478;5.692;2023-04-01T18:21:50;10.20;99.90
42833;DHT22;64089;51.478;5.692;2023-04-01T18:27:27;10.20;99.90
42833;DHT22;64089;51.478;5.692;2023-04-01T18:30:17;10.20;99.90
42833;DHT22;64089;51.478;5.692;2023-04-01T18:33:09;10.20;99.90
42833;DHT22;64089;51.478;5.692;2023-04-01T18:35:47;10.20;99.90
42833;DHT22;64089;51.478;5.692;2023-04-01T18:38:34;10.20;99.90
42833;DHT22;64089;51.478;5.692;2023-04-01T18:41:13;10.20;99.90
42833;DHT22;64089;51.478;5.692;2023-04-01T18:49:45;10.00;99.90
42833;DHT22;64089;51.478;5.692;2023-04-01T18:52:36;9.90;99.90
42833;DHT22;64089;51.478;5.692;2023-04-01T18:57:46;9.90;99.90
42833;DHT22;64089;51.478;5.692;2023-04-01T19:00:40;9.90;99.90
42833;DHT22;64089;51.478;5.692;2023-04-01T19:03:21;9.90;99.90
42833;DHT22;64089;51.478;5.692;2023-04-01T19:05:51;9.80;99.90
42833;DHT22;64089;51.478;5.692;2023-04-01T19:30:17;9.70;99.90
42833;DHT22;64089;51.478;5.692;2023-04-01T19:35:35;9.60;99.90
42833;DHT22;64089;51.478;5.692;2023-04-01T19:38:26;9.60;99.90
42833;DHT22;64089;51.478;5.692;2023-04-01T19:41:15;9.60;99.90
42833;DHT22;64089;51.478;5.692;2023-04-01T19:46:36;9.50;99.90
42833;DHT22;64089;51.478;5.692;2023-04-01T19:49:12;9.50;99.90
42833;DHT22;64089;51.478;5.692;2023-04-01T19:51:52;9.40;99.90
42833;DHT22;64089;51.478;5.692;2023-04-01T20:10:13;9.20;99.90
42833;DHT22;64089;51.478;5.692;2023-04-01T20:12:52;9.30;99.90
42833;DHT22;64089;51.478;5.692;2023-04-01T20:15:40;9.20;99.90
42833;DHT22;64089;51.478;5.692;2023-04-01T20:18:19;9.20;99.90
42833;DHT22;64089;51.478;5.692;2023-04-01T20:21:01;9.20;99.90
42833;DHT22;64089;51.478;5.692;2023-04-01T20:23:50;9.20;99.90
42833;DHT22;64089;51.478;5.692;2023-04-01T20:26:21;9.20;99.90
42833;DHT22;64089;51.478;5.692;2023-04-01T20:31:41;9.10;99.90
42833;DHT22;64089;51.478;5.692;2023-04-01T20:34:20;9.00;99.90
42833;DHT22;64089;51.478;5.692;2023-04-01T20:37:28;9.00;99.90
42833;DHT22;64089;51.478;5.692;2023-04-01T20:40:23;8.90;99.90
42833;DHT22;64089;51.478;5.692;2023-04-01T20:46:15;8.90;99.90
42833;DHT22;64089;51.478;5.692;2023-04-01T20:48:48;8.90;99.90
42833;DHT22;64089;51.478;5.692;2023-04-01T20:51:23;8.80;99.90
42833;DHT22;64089;51.478;5.692;2023-04-01T20:56:36;8.80;99.90
42833;DHT22;64089;51.478;5.692;2023-04-01T21:01:50;8.80;99.90
42833;DHT22;64089;51.478;5.692;2023-04-01T21:04:35;8.80;99.90
42833;DHT22;64089;51.478;5.692;2023-04-01T21:07:11;8.70;99.90
42833;DHT22;64089;51.478;5.692;2023-04-01T21:10:20;8.70;99.90
42833;DHT22;64089;51.478;5.692;2023-04-01T21:13:01;8.70;99.90
42833;DHT22;64089;51.478;5.692;2023-04-01T21:40:50;8.60;99.90
42833;DHT22;64089;51.478;5.692;2023-04-01T21:54:31;8.50;99.90
42833;DHT22;64089;51.478;5.692;2023-04-01T22:05:31;8.40;99.90
42833;DHT22;64089;51.478;5.692;2023-04-01T22:08:41;8.30;99.90
42833;DHT22;64089;51.478;5.692;2023-04-01T22:11:30;8.30;99.90
42833;DHT22;64089;51.478;5.692;2023-04-01T22:14:05;8.30;99.90
42833;DHT22;64089;51.478;5.692;2023-04-01T22:22:02;8.20;99.90
42833;DHT22;64089;51.478;5.692;2023-04-01T22:24:37;8.30;99.90
42833;DHT22;64089;51.478;5.692;2023-04-01T22:27:21;8.20;99.90
42833;DHT22;64089;51.478;5.692;2023-04-01T22:32:37;8.10;99.90
42833;DHT22;64089;51.478;5.692;2023-04-01T22:38:35;8.00;99.90
42833;DHT22;64089;51.478;5.692;2023-04-01T22:41:20;8.00;99.90
42833;DHT22;64089;51.478;5.692;2023-04-01T22:43:52;7.90;99.90
42833;DHT22;64089;51.478;5.692;2023-04-01T22:46:40;7.90;99.90
42833;DHT22;64089;51.478;5.692;2023-04-01T22:49:22;7.80;99.90
42833;DHT22;64089;51.478;5.692;2023-04-01T22:51:57;7.70;99.90
42833;DHT22;64089;51.478;5.692;2023-04-01T22:54:36;7.70;99.90
42833;DHT22;64089;51.478;5.692;2023-04-01T23:00:05;7.60;99.90
42833;DHT22;64089;51.478;5.692;2023-04-01T23:03:04;7.60;99.90
42833;DHT22;64089;51.478;5.692;2023-04-01T23:05:31;7.60;99.90
42833;DHT22;64089;51.478;5.692;2023-04-01T23:10:49;7.60;99.90
42833;DHT22;64089;51.478;5.692;2023-04-01T23:13:52;7.50;99.90
42833;DHT22;64089;51.478;5.692;2023-04-01T23:16:38;7.50;99.90
42833;DHT22;64089;51.478;5.692;2023-04-01T23:27:39;7.40;99.90
42833;DHT22;64089;51.478;5.692;2023-04-01T23:35:54;7.40;99.90
42833;DHT22;64089;51.478;5.692;2023-04-01T23:38:25;7.30;99.90
42833;DHT22;64089;51.478;5.692;2023-04-01T23:40:53;7.30;99.90
42833;DHT22;64089;51.478;5.692;2023-04-01T23:43:26;7.30;99.90
42833;DHT22;64089;51.478;5.692;2023-04-01T23:45:56;7.30;99.90
42833;DHT22;64089;51.478;5.692;2023-04-01T23:48:30;7.30;99.90
42833;DHT22;64089;51.478;5.692;2023-04-01T23:50:58;7.20;99.90
42833;DHT22;64089;51.478;5.692;2023-04-01T23:53:26;7.20;99.90
42833;DHT22;64089;51.478;5.692;2023-04-01T23:55:54;7.20;99.90
42833;DHT22;64089;51.478;5.692;2023-04-01T23:58:26;7.20;99.90
